createdAt,value
2018-01-27T00:01:44.806Z,34.87
2018-01-27T00:04:12.630Z,36.87
2018-01-27T00:06:40.180Z,36.60
2018-01-27T00:09:07.725Z,42.20
2018-01-27T00:11:35.265Z,39.87
2018-01-27T00:14:03.632Z,37.63
2018-01-27T00:16:31.168Z,35.30
2018-01-27T00:18:59.464Z,38.20
2018-01-27T00:21:27.011Z,36.87
2018-01-27T00:23:54.763Z,40.50
2018-01-27T00:26:22.339Z,33.37
2018-01-27T00:28:50.233Z,39.83
2018-01-27T00:31:18.088Z,36.97
2018-01-27T00:33:47.183Z,35.90
2018-01-27T00:36:14.869Z,36.37
2018-01-27T00:38:42.450Z,43.27
2018-01-27T00:41:09.991Z,37.10
2018-01-27T00:43:38.279Z,40.70
2018-01-27T00:46:05.818Z,47.03
2018-01-27T00:48:33.351Z,38.90
2018-01-27T00:51:00.877Z,42.57
2018-01-27T00:53:29.192Z,40.60
2018-01-27T00:55:57.038Z,46.17
2018-01-27T00:58:25.371Z,41.43
2018-01-27T01:00:52.989Z,47.70
2018-01-27T01:03:20.971Z,44.00
2018-01-27T01:05:48.951Z,41.50
2018-01-27T01:08:17.353Z,46.77
2018-01-27T01:10:45.459Z,45.70
2018-01-27T01:13:13.037Z,47.43
2018-01-27T01:15:41.664Z,53.27
2018-01-27T01:18:09.313Z,44.47
2018-01-27T01:20:36.891Z,47.23
2018-01-27T01:23:04.447Z,47.57
2018-01-27T01:25:31.977Z,47.30
2018-01-27T01:27:59.831Z,45.33
2018-01-27T01:30:27.416Z,46.20
2018-01-27T01:32:54.999Z,55.17
2018-01-27T01:35:22.590Z,46.40
2018-01-27T01:37:50.514Z,49.20
2018-01-27T01:40:19.328Z,47.50
2018-01-27T01:42:52.902Z,46.00
2018-01-27T01:45:20.809Z,44.50
2018-01-27T01:47:49.385Z,53.90
2018-01-27T01:50:17.068Z,48.73
2018-01-27T01:52:45.833Z,48.20
2018-01-27T01:55:14.520Z,50.67
2018-01-27T01:57:42.364Z,53.73
2018-01-27T02:00:09.889Z,56.93
2018-01-27T02:02:37.434Z,53.43
2018-01-27T02:05:06.090Z,55.57
2018-01-27T02:07:34.536Z,59.33
2018-01-27T02:10:02.064Z,49.67
2018-01-27T02:12:30.400Z,55.50
2018-01-27T02:14:57.921Z,53.53
2018-01-27T02:17:25.702Z,72.30
2018-01-27T02:19:53.552Z,66.63
2018-01-27T02:22:21.153Z,66.87
2018-01-27T02:24:49.102Z,62.13
2018-01-27T02:27:17.446Z,66.07
2018-01-27T02:29:46.481Z,60.30
2018-01-27T02:32:14.365Z,59.20
2018-01-27T02:34:42.716Z,61.07
2018-01-27T02:37:10.249Z,59.90
2018-01-27T02:39:38.538Z,67.57
2018-01-27T02:42:06.382Z,64.27
2018-01-27T02:44:35.008Z,73.70
2018-01-27T02:47:02.871Z,64.90
2018-01-27T02:49:31.233Z,67.57
2018-01-27T02:51:58.795Z,64.37
2018-01-27T02:54:26.416Z,76.23
2018-01-27T02:56:54.357Z,69.70
2018-01-27T02:59:21.978Z,68.30
2018-01-27T03:01:49.585Z,66.97
2018-01-27T03:04:17.988Z,71.73
2018-01-27T03:06:45.917Z,72.60
2018-01-27T03:09:14.085Z,73.97
2018-01-27T03:11:41.848Z,70.17
2018-01-27T03:14:09.370Z,75.07
2018-01-27T03:16:37.652Z,70.20
2018-01-27T03:19:06.024Z,63.57
2018-01-27T03:21:33.550Z,69.00
2018-01-27T03:24:01.073Z,75.90
2018-01-27T03:26:28.652Z,81.47
2018-01-27T03:28:56.215Z,83.63
2018-01-27T03:31:23.789Z,81.80
2018-01-27T03:33:51.530Z,82.13
2018-01-27T03:36:19.163Z,83.43
2018-01-27T03:38:46.796Z,79.70
2018-01-27T03:41:14.843Z,85.27
2018-01-27T03:43:42.372Z,83.67
2018-01-27T03:46:09.923Z,91.23
2018-01-27T03:48:37.461Z,89.97
2018-01-27T03:51:04.990Z,87.23
2018-01-27T03:53:32.519Z,81.17
2018-01-27T03:56:00.078Z,83.33
2018-01-27T03:58:27.611Z,91.43
2018-01-27T04:00:56.041Z,81.60
2018-01-27T04:03:23.601Z,89.33
2018-01-27T04:05:51.999Z,100.57
2018-01-27T04:08:20.294Z,111.03
2018-01-27T04:10:48.364Z,106.67
2018-01-27T04:13:16.848Z,112.03
2018-01-27T04:15:45.946Z,115.13
2018-01-27T04:18:13.552Z,106.73
2018-01-27T04:20:41.086Z,123.67
2018-01-27T04:23:09.372Z,121.03
2018-01-27T04:25:36.925Z,127.70
2018-01-27T04:28:04.444Z,117.43
2018-01-27T04:30:32.062Z,142.30
2018-01-27T04:32:59.940Z,142.43
2018-01-27T04:35:27.493Z,140.30
2018-01-27T04:37:55.049Z,145.17
2018-01-27T04:40:22.981Z,154.60
2018-01-27T04:42:51.440Z,147.80
2018-01-27T04:45:19.114Z,149.33
2018-01-27T04:47:48.444Z,148.17
2018-01-27T04:50:16.744Z,150.17
2018-01-27T04:52:45.498Z,150.10
2018-01-27T04:55:13.505Z,133.97
2018-01-27T04:57:41.033Z,113.40
2018-01-27T05:00:09.320Z,119.33
2018-01-27T05:02:37.026Z,119.70
2018-01-27T05:05:05.340Z,110.90
2018-01-27T05:07:33.626Z,127.03
2018-01-27T05:10:01.941Z,122.47
2018-01-27T05:12:29.495Z,112.77
2018-01-27T05:14:57.136Z,118.90
2018-01-27T05:17:24.759Z,129.63
2018-01-27T05:19:52.321Z,131.87
2018-01-27T05:22:20.084Z,132.63
2018-01-27T05:24:48.328Z,117.97
2018-01-27T05:27:16.191Z,113.80
2018-01-27T05:29:43.852Z,112.43
2018-01-27T05:32:11.419Z,103.50
2018-01-27T05:34:38.953Z,96.93
2018-01-27T05:37:06.469Z,94.37
2018-01-27T05:39:34.032Z,90.10
2018-01-27T05:42:01.561Z,102.83
2018-01-27T05:44:29.084Z,88.97
2018-01-27T05:46:57.433Z,102.07
2018-01-27T05:49:25.025Z,98.80
2018-01-27T05:51:52.742Z,107.37
2018-01-27T05:54:20.476Z,108.23
2018-01-27T05:56:48.658Z,89.37
2018-01-27T05:59:16.485Z,83.93
2018-01-27T06:01:44.216Z,86.67
2018-01-27T06:04:12.549Z,83.83
2018-01-27T06:06:40.082Z,96.07
2018-01-27T06:09:08.394Z,84.93
2018-01-27T06:11:35.925Z,84.10
2018-01-27T06:14:04.450Z,89.53
2018-01-27T06:16:32.100Z,91.90
2018-01-27T06:18:59.620Z,80.80
2018-01-27T06:21:27.908Z,89.80
2018-01-27T06:23:56.262Z,85.20
2018-01-27T06:26:23.811Z,94.77
2018-01-27T06:28:51.738Z,89.80
2018-01-27T06:31:19.488Z,96.10
2018-01-27T06:33:47.593Z,79.90
2018-01-27T06:36:17.348Z,86.50
2018-01-27T06:38:46.487Z,92.23
2018-01-27T06:41:14.369Z,86.90
2018-01-27T06:43:41.904Z,87.43
2018-01-27T06:46:09.444Z,81.80
2018-01-27T06:48:38.022Z,88.70
2018-01-27T06:51:05.576Z,85.60
2018-01-27T06:53:33.894Z,98.43
2018-01-27T06:56:01.412Z,99.43
2018-01-27T06:58:28.968Z,100.80
2018-01-27T07:00:56.819Z,105.70
2018-01-27T07:03:24.549Z,98.83
2018-01-27T07:05:52.591Z,94.60
2018-01-27T07:08:20.897Z,94.90
2018-01-27T07:10:49.072Z,84.43
2018-01-27T07:13:18.665Z,90.33
2018-01-27T07:15:47.596Z,90.13
2018-01-27T07:18:15.685Z,82.83
2018-01-27T07:20:43.613Z,76.43
2018-01-27T07:23:11.609Z,81.40
2018-01-27T07:25:39.825Z,78.80
2018-01-27T07:28:10.215Z,76.40
2018-01-27T07:30:38.040Z,76.77
2018-01-27T07:33:05.661Z,76.07
2018-01-27T07:35:33.291Z,66.43
2018-01-27T07:38:00.862Z,67.77
2018-01-27T07:40:28.389Z,68.70
2018-01-27T07:42:55.968Z,72.97
2018-01-27T07:45:23.810Z,64.40
2018-01-27T07:47:51.478Z,69.70
2018-01-27T07:50:20.615Z,64.67
2018-01-27T07:52:48.328Z,65.53
2018-01-27T07:55:17.683Z,64.57
2018-01-27T07:57:45.759Z,66.13
2018-01-27T08:00:15.063Z,72.77
2018-01-27T08:02:42.792Z,72.83
2018-01-27T08:05:10.709Z,66.53
2018-01-27T08:07:39.140Z,64.87
2018-01-27T08:10:06.668Z,64.40
2018-01-27T08:12:34.244Z,78.87
2018-01-27T08:15:01.800Z,68.30
2018-01-27T08:17:29.316Z,62.80
2018-01-27T08:19:56.874Z,61.27
2018-01-27T08:22:24.612Z,67.87
2018-01-27T08:24:53.300Z,67.87
2018-01-27T08:27:21.355Z,64.67
2018-01-27T08:29:51.405Z,65.47
2018-01-27T08:32:24.725Z,70.73
2018-01-27T08:34:52.642Z,67.83
2018-01-27T08:37:20.337Z,69.10
2018-01-27T08:39:47.958Z,69.53
2018-01-27T08:42:16.380Z,64.53
2018-01-27T08:44:46.121Z,55.97
2018-01-27T08:47:15.528Z,55.23
2018-01-27T08:49:43.129Z,66.97
2018-01-27T08:52:10.644Z,55.53
2018-01-27T08:54:38.229Z,57.47
2018-01-27T08:57:07.816Z,51.53
2018-01-27T08:59:35.432Z,58.63
2018-01-27T09:02:03.289Z,53.73
2018-01-27T09:04:30.815Z,49.50
2018-01-27T09:06:59.454Z,50.13
2018-01-27T09:09:27.096Z,46.80
2018-01-27T09:11:55.637Z,53.63
2018-01-27T09:14:25.830Z,44.13
2018-01-27T09:16:53.712Z,40.37
2018-01-27T09:19:22.276Z,37.77
2018-01-27T09:21:50.781Z,40.90
2018-01-27T09:24:18.978Z,36.03
2018-01-27T09:26:47.695Z,37.67
2018-01-27T09:29:15.482Z,37.83
2018-01-27T09:31:43.202Z,39.50
2018-01-27T09:34:11.626Z,25.43
2018-01-27T09:36:39.424Z,30.77
2018-01-27T09:39:07.758Z,27.67
2018-01-27T09:41:35.292Z,29.10
2018-01-27T09:44:02.831Z,30.00
2018-01-27T09:46:31.461Z,30.80
2018-01-27T09:48:58.995Z,29.80
2018-01-27T09:51:26.517Z,30.17
2018-01-27T09:53:54.357Z,32.67
2018-01-27T09:56:23.511Z,27.43
2018-01-27T09:58:51.402Z,31.13
2018-01-27T10:01:19.121Z,33.67
2018-01-27T10:03:53.467Z,28.97
2018-01-27T10:06:21.264Z,31.63
2018-01-27T10:08:49.818Z,31.33
2018-01-27T10:11:17.750Z,29.33
2018-01-27T10:13:46.185Z,28.93
2018-01-27T10:16:14.785Z,35.33
2018-01-27T10:18:42.373Z,32.27
2018-01-27T10:21:10.806Z,26.03
2018-01-27T10:23:38.406Z,28.70
2018-01-27T10:26:06.247Z,29.73
2018-01-27T10:28:33.817Z,28.73
2018-01-27T10:31:01.384Z,29.20
2018-01-27T10:33:29.122Z,29.37
2018-01-27T10:35:57.080Z,27.60
2018-01-27T10:38:25.063Z,27.10
2018-01-27T10:40:52.986Z,26.23
2018-01-27T10:43:21.648Z,27.23
2018-01-27T10:45:49.688Z,24.20
2018-01-27T10:48:18.176Z,25.07
2018-01-27T10:50:46.312Z,28.67
2018-01-27T10:53:15.876Z,23.63
2018-01-27T10:55:43.460Z,29.93
2018-01-27T10:58:11.504Z,25.33
2018-01-27T11:00:39.030Z,27.93
2018-01-27T11:03:06.604Z,22.97
2018-01-27T11:05:34.154Z,25.77
2018-01-27T11:08:01.709Z,26.13
2018-01-27T11:10:29.229Z,25.97
2018-01-27T11:12:56.775Z,27.83
2018-01-27T11:15:24.318Z,22.73
2018-01-27T11:17:52.000Z,22.57
2018-01-27T11:20:20.357Z,22.07
2018-01-27T11:22:48.108Z,22.20
2018-01-27T11:25:16.621Z,21.50
2018-01-27T11:27:45.074Z,23.80
2018-01-27T11:30:12.639Z,22.60
2018-01-27T11:32:40.968Z,24.37
2018-01-27T11:35:08.528Z,19.77
2018-01-27T11:37:36.823Z,23.07
2018-01-27T11:40:05.128Z,16.27
2018-01-27T11:42:32.673Z,21.53
2018-01-27T11:45:00.212Z,18.10
2018-01-27T11:47:28.610Z,21.17
2018-01-27T11:49:56.182Z,19.10
2018-01-27T11:52:23.853Z,20.20
2018-01-27T11:54:51.508Z,23.13
2018-01-27T11:57:19.638Z,21.97
2018-01-27T11:59:49.977Z,17.37
2018-01-27T12:02:17.875Z,17.43
2018-01-27T12:04:45.904Z,20.47
2018-01-27T12:07:13.477Z,18.97
2018-01-27T12:09:41.040Z,21.17
2018-01-27T12:12:09.883Z,18.50
2018-01-27T12:14:37.520Z,19.83
2018-01-27T12:17:05.184Z,20.10
2018-01-27T12:19:32.714Z,17.03
2018-01-27T12:22:00.997Z,16.67
2018-01-27T12:24:28.556Z,16.37
2018-01-27T12:26:57.541Z,17.03
2018-01-27T12:29:27.301Z,17.70
2018-01-27T12:31:55.254Z,20.37
2018-01-27T12:34:24.116Z,18.80
2018-01-27T12:36:52.602Z,17.47
2018-01-27T12:39:20.805Z,14.80
2018-01-27T12:41:48.642Z,15.77
2018-01-27T12:44:16.568Z,14.73
2018-01-27T12:46:44.330Z,16.40
2018-01-27T12:49:12.373Z,11.70
2018-01-27T12:51:40.854Z,13.37
2018-01-27T12:54:09.540Z,17.13
2018-01-27T12:56:37.714Z,17.53
2018-01-27T12:59:05.327Z,12.03
2018-01-27T13:01:32.846Z,14.30
2018-01-27T13:04:00.417Z,11.30
2018-01-27T13:06:27.956Z,15.30
2018-01-27T13:08:55.496Z,10.43
2018-01-27T13:11:23.356Z,12.40
2018-01-27T13:13:51.263Z,11.17
2018-01-27T13:16:19.568Z,10.80
2018-01-27T13:18:48.060Z,10.73
2018-01-27T13:21:16.287Z,10.80
2018-01-27T13:23:44.459Z,11.33
2018-01-27T13:26:12.130Z,11.27
2018-01-27T13:28:39.664Z,8.47
2018-01-27T13:31:07.756Z,9.20
2018-01-27T13:33:35.333Z,10.87
2018-01-27T13:36:03.591Z,9.53
2018-01-27T13:38:31.108Z,10.00
2018-01-27T13:40:59.847Z,9.67
2018-01-27T13:43:27.357Z,9.13
2018-01-27T13:45:55.656Z,7.30
2018-01-27T13:48:23.564Z,9.60
2018-01-27T13:50:51.313Z,9.13
2018-01-27T13:53:19.021Z,9.23
2018-01-27T13:55:47.969Z,8.30
2018-01-27T13:58:16.376Z,11.70
2018-01-27T14:00:44.360Z,9.00
2018-01-27T14:03:12.185Z,9.00
2018-01-27T14:05:39.901Z,10.73
2018-01-27T14:08:08.532Z,8.60
2018-01-27T14:10:36.288Z,10.93
2018-01-27T14:13:04.053Z,8.43
2018-01-27T14:15:31.584Z,5.77
2018-01-27T14:17:59.881Z,8.73
2018-01-27T14:20:27.388Z,7.57
2018-01-27T14:22:54.903Z,9.77
2018-01-27T14:25:22.532Z,6.27
2018-01-27T14:27:50.868Z,8.53
2018-01-27T14:30:18.954Z,7.73
2018-01-27T14:32:47.845Z,7.37
2018-01-27T14:35:18.466Z,7.33
2018-01-27T14:37:47.394Z,7.73
2018-01-27T14:40:16.149Z,11.43
2018-01-27T14:42:45.021Z,8.37
2018-01-27T14:45:12.696Z,7.23
2018-01-27T14:47:40.437Z,6.53
2018-01-27T14:50:08.624Z,8.67
2018-01-27T14:52:36.355Z,7.23
2018-01-27T14:55:04.872Z,6.90
2018-01-27T14:57:32.694Z,6.63
2018-01-27T15:00:00.237Z,10.07
2018-01-27T15:02:27.834Z,7.17
2018-01-27T15:04:56.134Z,10.60
2018-01-27T15:07:23.719Z,8.13
2018-01-27T15:09:51.875Z,7.87
2018-01-27T15:12:20.045Z,10.23
2018-01-27T15:14:48.012Z,9.70
2018-01-27T15:17:15.878Z,8.63
2018-01-27T15:19:43.644Z,9.57
2018-01-27T15:22:11.217Z,10.23
2018-01-27T15:24:38.849Z,8.53
2018-01-27T15:27:06.440Z,8.57
2018-01-27T15:29:34.025Z,12.50
2018-01-27T15:32:01.972Z,10.63
2018-01-27T15:34:29.624Z,8.37
2018-01-27T15:36:57.371Z,8.47
2018-01-27T15:39:25.113Z,10.60
2018-01-27T15:41:54.636Z,10.27
2018-01-27T15:44:22.727Z,9.60
2018-01-27T15:46:51.036Z,8.20
2018-01-27T15:49:18.862Z,10.23
2018-01-27T15:51:48.420Z,9.73
2018-01-27T15:54:17.375Z,11.10
2018-01-27T15:56:46.159Z,9.30
2018-01-27T15:59:13.694Z,7.97
2018-01-27T16:01:41.381Z,10.43
2018-01-27T16:04:09.113Z,12.83
2018-01-27T16:06:37.708Z,9.80
2018-01-27T16:09:05.399Z,10.47
2018-01-27T16:11:33.824Z,11.47
2018-01-27T16:14:01.340Z,9.53
2018-01-27T16:16:28.994Z,10.63
2018-01-27T16:18:56.660Z,10.63
2018-01-27T16:21:24.345Z,9.93
2018-01-27T16:23:52.215Z,10.07
2018-01-27T16:26:21.422Z,14.00
2018-01-27T16:28:49.396Z,8.93
2018-01-27T16:31:18.286Z,10.60
2018-01-27T16:33:47.161Z,11.83
2018-01-27T16:36:15.111Z,10.50
2018-01-27T16:38:43.700Z,9.83
2018-01-27T16:41:15.056Z,11.93
2018-01-27T16:43:43.017Z,8.20
2018-01-27T16:46:10.979Z,6.23
2018-01-27T16:48:38.540Z,10.03
2018-01-27T16:51:07.329Z,8.20
2018-01-27T16:53:34.845Z,6.57
2018-01-27T16:56:02.359Z,8.97
2018-01-27T16:58:29.933Z,7.13
2018-01-27T17:00:57.449Z,7.13
2018-01-27T17:03:25.089Z,8.30
2018-01-27T17:05:53.485Z,8.13
2018-01-27T17:08:22.354Z,8.73
2018-01-27T17:10:50.886Z,5.43
2018-01-27T17:13:19.101Z,8.77
2018-01-27T17:15:47.843Z,8.27
2018-01-27T17:18:16.220Z,6.70
2018-01-27T17:20:44.193Z,8.20
2018-01-27T17:23:11.893Z,7.00
2018-01-27T17:25:39.425Z,6.20
2018-01-27T17:28:07.317Z,9.43
2018-01-27T17:30:34.829Z,6.10
2018-01-27T17:33:02.336Z,6.03
2018-01-27T17:35:29.868Z,6.10
2018-01-27T17:37:57.503Z,6.00
2018-01-27T17:40:25.390Z,4.13
2018-01-27T17:42:53.796Z,6.50
2018-01-27T17:45:21.401Z,7.40
2018-01-27T17:47:50.426Z,6.47
2018-01-27T17:50:18.185Z,8.70
2018-01-27T17:52:45.982Z,7.10
2018-01-27T17:55:13.617Z,6.70
2018-01-27T17:57:41.436Z,6.20
2018-01-27T18:00:09.266Z,6.63
2018-01-27T18:02:36.855Z,7.30
2018-01-27T18:05:04.413Z,7.97
2018-01-27T18:07:31.925Z,4.87
2018-01-27T18:09:59.440Z,5.73
2018-01-27T18:12:27.103Z,7.00
2018-01-27T18:14:54.632Z,8.90
2018-01-27T18:17:22.477Z,7.20
2018-01-27T18:19:50.115Z,6.37
2018-01-27T18:22:17.769Z,9.63
2018-01-27T18:24:47.281Z,4.50
2018-01-27T18:27:16.388Z,7.73
2018-01-27T18:29:45.031Z,5.83
2018-01-27T18:32:13.353Z,4.43
2018-01-27T18:34:41.124Z,6.83
2018-01-27T18:37:08.801Z,7.53
2018-01-27T18:39:36.585Z,6.37
2018-01-27T18:42:04.515Z,7.13
2018-01-27T18:44:32.980Z,8.90
2018-01-27T18:47:01.253Z,5.53
2018-01-27T18:49:29.780Z,7.60
2018-01-27T18:51:57.321Z,6.27
2018-01-27T18:54:26.394Z,6.77
2018-01-27T18:56:56.039Z,7.27
2018-01-27T18:59:24.545Z,7.03
2018-01-27T19:01:52.478Z,6.77
2018-01-27T19:04:20.954Z,6.43
2018-01-27T19:06:48.734Z,4.67
2018-01-27T19:09:16.612Z,7.17
2018-01-27T19:11:45.677Z,7.67
2018-01-27T19:14:13.241Z,5.47
2018-01-27T19:16:40.762Z,6.10
2018-01-27T19:19:08.605Z,8.67
2018-01-27T19:21:36.248Z,4.60
2018-01-27T19:24:03.853Z,7.40
2018-01-27T19:26:31.501Z,7.00
2018-01-27T19:28:59.071Z,8.17
2018-01-27T19:31:26.919Z,4.60
2018-01-27T19:33:54.599Z,5.27
2018-01-27T19:36:22.953Z,4.10
2018-01-27T19:38:50.912Z,7.10
2018-01-27T19:41:20.521Z,5.53
2018-01-27T19:43:48.398Z,5.73
2018-01-27T19:46:16.867Z,5.33
2018-01-27T19:48:46.188Z,6.07
2018-01-27T19:51:13.762Z,5.80
2018-01-27T19:53:42.049Z,6.40
2018-01-27T19:56:09.972Z,7.13
2018-01-27T19:58:38.062Z,5.93
2018-01-27T20:01:05.681Z,4.87
2018-01-27T20:03:33.362Z,6.50
2018-01-27T20:06:00.943Z,7.87
2018-01-27T20:08:28.655Z,10.33
2018-01-27T20:10:57.415Z,8.17
2018-01-27T20:13:25.935Z,7.17
2018-01-27T20:15:54.862Z,5.57
2018-01-27T20:18:22.773Z,8.03
2018-01-27T20:20:50.548Z,6.27
2018-01-27T20:23:19.873Z,5.23
2018-01-27T20:25:48.277Z,5.37
2018-01-27T20:28:16.040Z,4.00
2018-01-27T20:30:44.367Z,4.87
2018-01-27T20:33:12.809Z,6.00
2018-01-27T20:35:40.327Z,5.93
2018-01-27T20:38:09.177Z,5.07
2018-01-27T20:40:37.812Z,4.63
2018-01-27T20:43:05.414Z,3.23
2018-01-27T20:45:32.936Z,3.73
2018-01-27T20:48:00.849Z,4.90
2018-01-27T20:50:28.362Z,5.80
2018-01-27T20:52:56.637Z,4.30
2018-01-27T20:55:24.995Z,3.63
2018-01-27T20:57:52.754Z,4.30
2018-01-27T21:00:21.152Z,3.87
2018-01-27T21:02:49.589Z,3.50
2018-01-27T21:05:17.863Z,5.20
2018-01-27T21:07:45.699Z,2.70
2018-01-27T21:10:15.314Z,3.50
2018-01-27T21:12:42.888Z,3.60
2018-01-27T21:15:10.460Z,4.07
2018-01-27T21:17:38.206Z,2.90
2018-01-27T21:20:05.824Z,3.60
2018-01-27T21:22:34.134Z,5.93
2018-01-27T21:25:01.908Z,3.63
2018-01-27T21:27:29.433Z,3.77
2018-01-27T21:29:57.770Z,4.87
2018-01-27T21:32:25.355Z,2.60
2018-01-27T21:34:53.844Z,3.47
2018-01-27T21:37:22.563Z,2.73
2018-01-27T21:39:50.623Z,3.47
2018-01-27T21:42:19.995Z,3.23
2018-01-27T21:44:49.536Z,2.63
2018-01-27T21:47:17.509Z,3.33
2018-01-27T21:49:46.003Z,3.20
2018-01-27T21:52:14.892Z,4.13
2018-01-27T21:54:42.665Z,2.03
2018-01-27T21:57:10.233Z,2.67
2018-01-27T21:59:38.018Z,2.60
2018-01-27T22:02:05.748Z,2.37
2018-01-27T22:04:33.368Z,2.70
2018-01-27T22:07:01.688Z,3.73
2018-01-27T22:09:29.254Z,2.83
2018-01-27T22:11:56.795Z,2.40
2018-01-27T22:14:24.752Z,4.03
2018-01-27T22:16:53.363Z,3.23
2018-01-27T22:19:21.124Z,4.07
2018-01-27T22:21:49.123Z,1.93
2018-01-27T22:24:17.475Z,3.90
2018-01-27T22:26:45.967Z,3.10
2018-01-27T22:29:13.514Z,3.03
2018-01-27T22:31:42.344Z,2.30
2018-01-27T22:34:10.377Z,3.40
2018-01-27T22:36:39.369Z,4.03
2018-01-27T22:39:06.955Z,3.87
2018-01-27T22:41:34.580Z,3.03
2018-01-27T22:44:02.100Z,4.12
2018-01-27T22:46:29.669Z,5.00
2018-01-27T22:48:57.187Z,3.13
2018-01-27T22:51:25.166Z,4.27
2018-01-27T22:53:53.112Z,3.17
2018-01-27T22:56:21.172Z,3.97
2018-01-27T22:58:49.050Z,4.70
2018-01-27T23:01:20.850Z,3.43
2018-01-27T23:03:49.186Z,3.63
2018-01-27T23:06:17.502Z,8.77
2018-01-27T23:08:46.091Z,6.73
2018-01-27T23:11:15.143Z,5.20
2018-01-27T23:13:42.703Z,4.33
2018-01-27T23:16:10.464Z,2.87
2018-01-27T23:18:38.236Z,5.00
2018-01-27T23:21:05.756Z,3.43
2018-01-27T23:23:34.066Z,5.05
2018-01-27T23:26:01.581Z,4.30
2018-01-27T23:28:29.124Z,3.87
2018-01-27T23:30:56.686Z,5.07
2018-01-27T23:33:24.400Z,4.20
2018-01-27T23:35:52.214Z,6.55
2018-01-27T23:38:21.071Z,7.67
2018-01-27T23:40:49.244Z,4.33
2018-01-27T23:43:18.544Z,5.87
2018-01-27T23:45:46.924Z,6.53
2018-01-27T23:48:15.212Z,6.07
2018-01-27T23:50:42.774Z,5.33
2018-01-27T23:53:10.834Z,6.63
2018-01-27T23:55:39.515Z,5.62
2018-01-27T23:58:07.183Z,6.77
